sensor_id;sensor_type;location;lat;lon;timestamp;pressure;altitude;pressure_sealevel;temperature;humidity
72570;BME280;60594;50.204;8.844;2022-08-27T00:00:14;99720.47;;;22.19;68.15
72570;BME280;60594;50.204;8.844;2022-08-27T00:03:01;99719.41;;;22.13;68.21
72570;BME280;60594;50.204;8.844;2022-08-27T00:05:28;99720.69;;;22.17;67.96
72570;BME280;60594;50.204;8.844;2022-08-27T00:07:54;99715.69;;;22.14;68.36
72570;BME280;60594;50.204;8.844;2022-08-27T00:10:23;99709.19;;;22.15;68.04
72570;BME280;60594;50.204;8.844;2022-08-27T00:12:50;99720.06;;;22.09;68.26
72570;BME280;60594;50.204;8.844;2022-08-27T00:15:16;99714.63;;;22.09;68.63
72570;BME280;60594;50.204;8.844;2022-08-27T00:17:44;99713.59;;;22.03;68.69
72570;BME280;60594;50.204;8.844;2022-08-27T00:20:15;99707.72;;;22.00;68.67
72570;BME280;60594;50.204;8.844;2022-08-27T00:22:42;99708.16;;;21.97;69.10
72570;BME280;60594;50.204;8.844;2022-08-27T00:25:09;99695.00;;;21.94;68.85
72570;BME280;60594;50.204;8.844;2022-08-27T00:27:36;99705.44;;;21.97;68.97
72570;BME280;60594;50.204;8.844;2022-08-27T00:30:05;99697.91;;;21.92;68.97
72570;BME280;60594;50.204;8.844;2022-08-27T00:32:32;99692.91;;;21.83;69.44
72570;BME280;60594;50.204;8.844;2022-08-27T00:34:58;99697.06;;;21.79;69.36
72570;BME280;60594;50.204;8.844;2022-08-27T00:37:24;99691.84;;;21.77;69.74
72570;BME280;60594;50.204;8.844;2022-08-27T00:39:50;99693.91;;;21.75;69.78
72570;BME280;60594;50.204;8.844;2022-08-27T00:42:17;99690.13;;;21.70;69.54
72570;BME280;60594;50.204;8.844;2022-08-27T00:44:43;99691.78;;;21.51;70.49
72570;BME280;60594;50.204;8.844;2022-08-27T00:47:14;99698.66;;;21.54;70.43
72570;BME280;60594;50.204;8.844;2022-08-27T00:49:52;99689.03;;;21.45;70.67
72570;BME280;60594;50.204;8.844;2022-08-27T00:52:27;99700.31;;;21.48;70.72
72570;BME280;60594;50.204;8.844;2022-08-27T00:55:02;99697.00;;;21.53;70.41
72570;BME280;60594;50.204;8.844;2022-08-27T00:57:29;99706.41;;;21.57;70.40
72570;BME280;60594;50.204;8.844;2022-08-27T00:59:56;99699.28;;;21.56;70.20
72570;BME280;60594;50.204;8.844;2022-08-27T01:02:22;99698.88;;;21.52;70.21
72570;BME280;60594;50.204;8.844;2022-08-27T01:05:01;99704.50;;;21.51;70.34
72570;BME280;60594;50.204;8.844;2022-08-27T01:07:28;99703.84;;;21.49;70.49
72570;BME280;60594;50.204;8.844;2022-08-27T01:09:58;99699.25;;;21.49;70.34
72570;BME280;60594;50.204;8.844;2022-08-27T01:12:26;99698.88;;;21.52;70.42
72570;BME280;60594;50.204;8.844;2022-08-27T01:14:54;99705.09;;;21.46;70.56
72570;BME280;60594;50.204;8.844;2022-08-27T01:17:21;99701.56;;;21.52;70.54
72570;BME280;60594;50.204;8.844;2022-08-27T01:19:51;99708.03;;;21.51;70.35
72570;BME280;60594;50.204;8.844;2022-08-27T01:22:43;99709.91;;;21.51;70.38
72570;BME280;60594;50.204;8.844;2022-08-27T01:25:15;99714.09;;;21.53;70.08
72570;BME280;60594;50.204;8.844;2022-08-27T01:27:43;99713.00;;;21.41;71.10
72570;BME280;60594;50.204;8.844;2022-08-27T01:30:12;99709.69;;;21.46;70.59
72570;BME280;60594;50.204;8.844;2022-08-27T01:32:39;99707.59;;;21.48;70.24
72570;BME280;60594;50.204;8.844;2022-08-27T01:35:10;99705.28;;;21.45;70.48
72570;BME280;60594;50.204;8.844;2022-08-27T01:37:38;99710.72;;;21.45;70.46
72570;BME280;60594;50.204;8.844;2022-08-27T01:40:05;99708.19;;;21.37;70.87
72570;BME280;60594;50.204;8.844;2022-08-27T01:42:39;99711.97;;;21.36;70.92
72570;BME280;60594;50.204;8.844;2022-08-27T01:45:21;99709.66;;;21.33;70.88
72570;BME280;60594;50.204;8.844;2022-08-27T01:47:47;99707.53;;;21.28;71.22
72570;BME280;60594;50.204;8.844;2022-08-27T01:50:18;99705.63;;;21.16;71.70
72570;BME280;60594;50.204;8.844;2022-08-27T01:52:44;99713.78;;;21.16;71.78
72570;BME280;60594;50.204;8.844;2022-08-27T01:55:14;99706.91;;;21.20;71.29
72570;BME280;60594;50.204;8.844;2022-08-27T01:57:42;99706.28;;;21.24;71.22
72570;BME280;60594;50.204;8.844;2022-08-27T02:00:19;99710.44;;;21.20;71.41
72570;BME280;60594;50.204;8.844;2022-08-27T02:02:47;99703.94;;;21.15;71.90
72570;BME280;60594;50.204;8.844;2022-08-27T02:05:14;99709.19;;;21.23;71.25
72570;BME280;60594;50.204;8.844;2022-08-27T02:07:41;99709.63;;;21.20;71.36
72570;BME280;60594;50.204;8.844;2022-08-27T02:10:10;99703.94;;;21.15;71.57
72570;BME280;60594;50.204;8.844;2022-08-27T02:12:37;99702.09;;;21.22;71.11
72570;BME280;60594;50.204;8.844;2022-08-27T02:15:04;99704.59;;;21.23;71.33
72570;BME280;60594;50.204;8.844;2022-08-27T02:17:31;99702.75;;;21.24;71.09
72570;BME280;60594;50.204;8.844;2022-08-27T02:19:58;99694.41;;;21.25;71.24
72570;BME280;60594;50.204;8.844;2022-08-27T02:22:26;99696.28;;;21.25;71.19
72570;BME280;60594;50.204;8.844;2022-08-27T02:24:53;99695.22;;;21.26;70.95
72570;BME280;60594;50.204;8.844;2022-08-27T02:27:19;99692.09;;;21.22;71.21
72570;BME280;60594;50.204;8.844;2022-08-27T02:29:46;99689.38;;;21.22;71.24
72570;BME280;60594;50.204;8.844;2022-08-27T02:32:15;99691.47;;;21.27;70.99
72570;BME280;60594;50.204;8.844;2022-08-27T02:34:41;99690.44;;;21.21;70.92
72570;BME280;60594;50.204;8.844;2022-08-27T02:37:08;99697.06;;;21.19;71.29
72570;BME280;60594;50.204;8.844;2022-08-27T02:39:34;99696.06;;;21.20;71.48
72570;BME280;60594;50.204;8.844;2022-08-27T02:42:00;99695.03;;;21.27;71.05
72570;BME280;60594;50.204;8.844;2022-08-27T02:44:27;99695.03;;;21.27;70.73
72570;BME280;60594;50.204;8.844;2022-08-27T02:46:53;99703.75;;;21.23;71.08
72570;BME280;60594;50.204;8.844;2022-08-27T02:49:19;99694.56;;;21.17;71.44
72570;BME280;60594;50.204;8.844;2022-08-27T02:51:46;99697.50;;;21.16;71.28
72570;BME280;60594;50.204;8.844;2022-08-27T02:54:12;99696.25;;;21.18;71.13
72570;BME280;60594;50.204;8.844;2022-08-27T02:56:39;99700.41;;;21.14;71.25
72570;BME280;60594;50.204;8.844;2022-08-27T02:59:05;99702.06;;;21.15;71.51
72570;BME280;60594;50.204;8.844;2022-08-27T03:01:32;99697.47;;;21.09;71.61
72570;BME280;60594;50.204;8.844;2022-08-27T03:03:58;99697.91;;;21.13;70.88
72570;BME280;60594;50.204;8.844;2022-08-27T03:06:25;99700.41;;;21.14;71.36
72570;BME280;60594;50.204;8.844;2022-08-27T03:08:52;99709.16;;;21.10;71.67
72570;BME280;60594;50.204;8.844;2022-08-27T03:11:19;99712.84;;;21.02;71.73
72570;BME280;60594;50.204;8.844;2022-08-27T03:13:47;99705.00;;;21.14;71.37
72570;BME280;60594;50.204;8.844;2022-08-27T03:16:13;99704.13;;;21.07;71.63
72570;BME280;60594;50.204;8.844;2022-08-27T03:18:40;99698.38;;;20.89;72.11
72570;BME280;60594;50.204;8.844;2022-08-27T03:21:06;99695.78;;;21.02;72.09
72570;BME280;60594;50.204;8.844;2022-08-27T03:23:34;99698.03;;;20.98;71.93
72570;BME280;60594;50.204;8.844;2022-08-27T03:26:02;99698.28;;;21.03;71.93
72570;BME280;60594;50.204;8.844;2022-08-27T03:28:32;99695.59;;;21.10;71.73
72570;BME280;60594;50.204;8.844;2022-08-27T03:31:01;99694.53;;;21.04;71.82
72570;BME280;60594;50.204;8.844;2022-08-27T03:33:30;99703.69;;;21.03;71.92
72570;BME280;60594;50.204;8.844;2022-08-27T03:35:58;99697.66;;;21.08;71.36
72570;BME280;60594;50.204;8.844;2022-08-27T03:38:25;99698.28;;;21.03;71.25
72570;BME280;60594;50.204;8.844;2022-08-27T03:40:52;99699.84;;;20.91;71.93
72570;BME280;60594;50.204;8.844;2022-08-27T03:43:20;99701.28;;;20.87;72.14
72570;BME280;60594;50.204;8.844;2022-08-27T03:45:48;99700.88;;;20.90;71.97
72570;BME280;60594;50.204;8.844;2022-08-27T03:48:15;99706.47;;;20.82;72.32
72570;BME280;60594;50.204;8.844;2022-08-27T03:50:45;99708.34;;;20.82;72.40
72570;BME280;60594;50.204;8.844;2022-08-27T03:53:14;99708.13;;;20.83;72.33
72570;BME280;60594;50.204;8.844;2022-08-27T03:55:41;99706.66;;;20.81;72.46
72570;BME280;60594;50.204;8.844;2022-08-27T03:58:10;99700.41;;;20.80;72.41
72570;BME280;60594;50.204;8.844;2022-08-27T04:00:38;99702.00;;;20.68;73.05
72570;BME280;60594;50.204;8.844;2022-08-27T04:03:05;99706.38;;;20.69;73.15
72570;BME280;60594;50.204;8.844;2022-08-27T04:05:32;99704.53;;;20.70;72.89
72570;BME280;60594;50.204;8.844;2022-08-27T04:07:59;99702.69;;;20.77;72.89
72570;BME280;60594;50.204;8.844;2022-08-27T04:10:26;99698.25;;;20.69;72.94
72570;BME280;60594;50.204;8.844;2022-08-27T04:12:53;99697.88;;;20.72;72.87
72570;BME280;60594;50.204;8.844;2022-08-27T04:15:19;99701.22;;;20.74;72.83
72570;BME280;60594;50.204;8.844;2022-08-27T04:17:45;99711.22;;;20.74;72.86
72570;BME280;60594;50.204;8.844;2022-08-27T04:20:12;99710.81;;;20.77;72.79
72570;BME280;60594;50.204;8.844;2022-08-27T04:22:38;99712.47;;;20.78;72.67
72570;BME280;60594;50.204;8.844;2022-08-27T04:25:05;99711.88;;;20.76;72.74
72570;BME280;60594;50.204;8.844;2022-08-27T04:27:33;99715.19;;;20.78;72.78
72570;BME280;60594;50.204;8.844;2022-08-27T04:30:00;99725.44;;;20.82;72.30
72570;BME280;60594;50.204;8.844;2022-08-27T04:32:27;99722.69;;;20.76;72.63
72570;BME280;60594;50.204;8.844;2022-08-27T04:34:57;99715.22;;;20.84;72.13
72570;BME280;60594;50.204;8.844;2022-08-27T04:37:24;99727.25;;;20.69;72.97
72570;BME280;60594;50.204;8.844;2022-08-27T04:39:51;99724.97;;;20.79;72.47
72570;BME280;60594;50.204;8.844;2022-08-27T04:42:19;99725.66;;;20.87;72.08
72570;BME280;60594;50.204;8.844;2022-08-27T04:44:46;99733.53;;;20.76;72.56
72570;BME280;60594;50.204;8.844;2022-08-27T04:47:13;99733.38;;;20.84;72.68
72570;BME280;60594;50.204;8.844;2022-08-27T04:49:40;99741.47;;;20.77;72.39
72570;BME280;60594;50.204;8.844;2022-08-27T04:52:07;99742.56;;;20.89;71.94
72570;BME280;60594;50.204;8.844;2022-08-27T04:54:33;99733.03;;;20.93;71.84
72570;BME280;60594;50.204;8.844;2022-08-27T04:57:01;99735.06;;;20.91;71.69
72570;BME280;60594;50.204;8.844;2022-08-27T04:59:30;99738.19;;;20.88;72.06
72570;BME280;60594;50.204;8.844;2022-08-27T05:01:58;99737.94;;;20.83;72.51
72570;BME280;60594;50.204;8.844;2022-08-27T05:04:24;99738.94;;;20.76;72.28
72570;BME280;60594;50.204;8.844;2022-08-27T05:06:50;99735.97;;;20.71;72.59
72570;BME280;60594;50.204;8.844;2022-08-27T05:09:17;99751.94;;;20.87;71.89
72570;BME280;60594;50.204;8.844;2022-08-27T05:11:44;99745.84;;;20.78;72.29
72570;BME280;60594;50.204;8.844;2022-08-27T05:14:13;99747.22;;;20.68;72.59
72570;BME280;60594;50.204;8.844;2022-08-27T05:16:40;99746.41;;;20.67;72.74
72570;BME280;60594;50.204;8.844;2022-08-27T05:19:09;99744.09;;;20.71;72.68
72570;BME280;60594;50.204;8.844;2022-08-27T05:21:38;99747.88;;;20.70;72.31
72570;BME280;60594;50.204;8.844;2022-08-27T05:24:06;99751.84;;;20.74;72.41
72570;BME280;60594;50.204;8.844;2022-08-27T05:26:34;99746.88;;;20.77;72.37
72570;BME280;60594;50.204;8.844;2022-08-27T05:29:02;99752.03;;;20.72;72.55
72570;BME280;60594;50.204;8.844;2022-08-27T05:31:31;99747.44;;;20.66;72.68
72570;BME280;60594;50.204;8.844;2022-08-27T05:33:58;99750.72;;;20.62;72.81
72570;BME280;60594;50.204;8.844;2022-08-27T05:36:26;99757.63;;;20.64;72.88
72570;BME280;60594;50.204;8.844;2022-08-27T05:38:53;99748.84;;;20.62;72.96
72570;BME280;60594;50.204;8.844;2022-08-27T05:41:23;99749.00;;;20.54;72.88
72570;BME280;60594;50.204;8.844;2022-08-27T05:43:51;99748.81;;;20.56;73.39
72570;BME280;60594;50.204;8.844;2022-08-27T05:46:20;99750.88;;;20.54;73.62
72570;BME280;60594;50.204;8.844;2022-08-27T05:48:49;99743.66;;;20.61;73.28
72570;BME280;60594;50.204;8.844;2022-08-27T05:51:21;99744.47;;;20.61;73.02
72570;BME280;60594;50.204;8.844;2022-08-27T05:53:48;99752.41;;;20.63;73.18
72570;BME280;60594;50.204;8.844;2022-08-27T05:56:20;99753.78;;;20.52;73.51
72570;BME280;60594;50.204;8.844;2022-08-27T05:58:47;99751.13;;;20.59;73.76
72570;BME280;60594;50.204;8.844;2022-08-27T06:01:39;99746.28;;;20.54;73.79
72570;BME280;60594;50.204;8.844;2022-08-27T06:04:06;99750.16;;;20.39;73.91
72570;BME280;60594;50.204;8.844;2022-08-27T06:06:35;99738.97;;;20.48;73.54
72570;BME280;60594;50.204;8.844;2022-08-27T06:09:04;99747.47;;;20.45;73.55
72570;BME280;60594;50.204;8.844;2022-08-27T06:11:31;99753.16;;;20.57;73.46
72570;BME280;60594;50.204;8.844;2022-08-27T06:13:57;99754.38;;;20.48;73.67
72570;BME280;60594;50.204;8.844;2022-08-27T06:16:24;99737.34;;;20.54;73.79
72570;BME280;60594;50.204;8.844;2022-08-27T06:18:52;99750.53;;;20.63;73.30
72570;BME280;60594;50.204;8.844;2022-08-27T06:21:19;99741.16;;;20.66;72.66
72570;BME280;60594;50.204;8.844;2022-08-27T06:23:48;99741.41;;;20.71;72.88
72570;BME280;60594;50.204;8.844;2022-08-27T06:26:16;99759.00;;;20.81;73.06
72570;BME280;60594;50.204;8.844;2022-08-27T06:28:44;99749.34;;;20.72;72.62
72570;BME280;60594;50.204;8.844;2022-08-27T06:33:40;99755.03;;;20.84;72.25
72570;BME280;60594;50.204;8.844;2022-08-27T06:36:10;99757.72;;;20.77;72.88
72570;BME280;60594;50.204;8.844;2022-08-27T06:38:38;99753.59;;;20.88;72.07
72570;BME280;60594;50.204;8.844;2022-08-27T06:41:06;99756.72;;;20.85;72.13
72570;BME280;60594;50.204;8.844;2022-08-27T06:43:35;99768.75;;;21.03;71.79
72570;BME280;60594;50.204;8.844;2022-08-27T06:46:03;99755.41;;;21.02;71.26
72570;BME280;60594;50.204;8.844;2022-08-27T06:48:30;99769.84;;;21.15;71.20
72570;BME280;60594;50.204;8.844;2022-08-27T06:50:58;99763.97;;;21.12;71.07
72570;BME280;60594;50.204;8.844;2022-08-27T06:53:25;99771.50;;;21.16;70.70
72570;BME280;60594;50.204;8.844;2022-08-27T06:55:52;99765.88;;;21.11;70.59
72570;BME280;60594;50.204;8.844;2022-08-27T06:58:18;99773.31;;;21.03;71.53
72570;BME280;60594;50.204;8.844;2022-08-27T07:00:45;99773.34;;;21.09;71.08
72570;BME280;60594;50.204;8.844;2022-08-27T07:03:12;99774.97;;;21.04;71.24
72570;BME280;60594;50.204;8.844;2022-08-27T07:05:39;99775.88;;;21.17;71.89
72570;BME280;60594;50.204;8.844;2022-08-27T07:08:07;99772.59;;;21.28;70.48
72570;BME280;60594;50.204;8.844;2022-08-27T07:10:35;99764.34;;;21.43;69.87
72570;BME280;60594;50.204;8.844;2022-08-27T07:13:02;99772.47;;;21.43;68.94
72570;BME280;60594;50.204;8.844;2022-08-27T07:15:29;99772.84;;;21.33;69.47
72570;BME280;60594;50.204;8.844;2022-08-27T07:17:56;99774.13;;;21.37;69.45
72570;BME280;60594;50.204;8.844;2022-08-27T07:20:26;99768.50;;;21.39;69.70
72570;BME280;60594;50.204;8.844;2022-08-27T07:22:55;99776.66;;;21.45;69.18
72570;BME280;60594;50.204;8.844;2022-08-27T07:25:24;99778.50;;;21.45;69.84
72570;BME280;60594;50.204;8.844;2022-08-27T07:27:51;99777.53;;;21.59;69.50
72570;BME280;60594;50.204;8.844;2022-08-27T07:30:18;99778.38;;;21.59;68.70
72570;BME280;60594;50.204;8.844;2022-08-27T07:32:45;99775.88;;;21.58;68.14
72570;BME280;60594;50.204;8.844;2022-08-27T07:35:12;99774.81;;;21.59;68.91
72570;BME280;60594;50.204;8.844;2022-08-27T07:37:39;99770.84;;;21.61;68.82
72570;BME280;60594;50.204;8.844;2022-08-27T07:40:13;99769.38;;;21.59;68.90
72570;BME280;60594;50.204;8.844;2022-08-27T07:42:40;99781.56;;;21.69;68.41
72570;BME280;60594;50.204;8.844;2022-08-27T07:45:28;99778.13;;;21.54;68.72
72570;BME280;60594;50.204;8.844;2022-08-27T07:47:55;99777.31;;;21.60;68.41
72570;BME280;60594;50.204;8.844;2022-08-27T07:50:23;99776.31;;;21.68;68.40
72570;BME280;60594;50.204;8.844;2022-08-27T07:52:53;99777.22;;;21.75;68.17
72570;BME280;60594;50.204;8.844;2022-08-27T07:55:19;99779.09;;;21.81;67.44
72570;BME280;60594;50.204;8.844;2022-08-27T07:57:46;99778.69;;;21.84;66.73
72570;BME280;60594;50.204;8.844;2022-08-27T08:00:16;99775.78;;;21.92;66.44
72570;BME280;60594;50.204;8.844;2022-08-27T08:02:42;99783.91;;;21.92;66.71
72570;BME280;60594;50.204;8.844;2022-08-27T08:05:10;99783.50;;;22.01;67.31
72570;BME280;60594;50.204;8.844;2022-08-27T08:07:38;99787.53;;;22.12;66.55
72570;BME280;60594;50.204;8.844;2022-08-27T08:10:06;99772.91;;;22.13;65.92
72570;BME280;60594;50.204;8.844;2022-08-27T08:12:42;99775.81;;;22.24;66.68
72570;BME280;60594;50.204;8.844;2022-08-27T08:15:10;99781.72;;;22.47;65.45
72570;BME280;60594;50.204;8.844;2022-08-27T08:17:37;99787.38;;;22.65;64.39
72570;BME280;60594;50.204;8.844;2022-08-27T08:20:06;99791.72;;;22.79;64.36
72570;BME280;60594;50.204;8.844;2022-08-27T08:22:33;99778.34;;;22.84;63.07
72570;BME280;60594;50.204;8.844;2022-08-27T08:25:00;99798.38;;;22.96;62.91
72570;BME280;60594;50.204;8.844;2022-08-27T08:27:27;99796.53;;;22.84;63.44
72570;BME280;60594;50.204;8.844;2022-08-27T08:29:54;99803.44;;;22.80;63.76
72570;BME280;60594;50.204;8.844;2022-08-27T08:32:22;99799.69;;;22.74;64.03
72570;BME280;60594;50.204;8.844;2022-08-27T08:34:51;99802.00;;;22.71;63.36
72570;BME280;60594;50.204;8.844;2022-08-27T08:37:18;99810.13;;;22.64;64.11
72570;BME280;60594;50.204;8.844;2022-08-27T08:39:45;99810.97;;;22.65;63.81
72570;BME280;60594;50.204;8.844;2022-08-27T08:44:55;99809.28;;;22.57;63.32
72570;BME280;60594;50.204;8.844;2022-08-27T08:50:21;99807.22;;;22.59;63.97
72570;BME280;60594;50.204;8.844;2022-08-27T08:53:00;99812.22;;;22.62;63.85
72570;BME280;60594;50.204;8.844;2022-08-27T08:55:45;99824.34;;;22.66;63.92
72570;BME280;60594;50.204;8.844;2022-08-27T09:00:56;99809.91;;;22.79;63.16
72570;BME280;60594;50.204;8.844;2022-08-27T09:03:24;99813.66;;;22.97;62.33
72570;BME280;60594;50.204;8.844;2022-08-27T09:06:02;99817.38;;;23.36;62.32
72570;BME280;60594;50.204;8.844;2022-08-27T09:08:35;99818.13;;;23.56;60.28
72570;BME280;60594;50.204;8.844;2022-08-27T09:11:17;99824.78;;;23.66;61.65
72570;BME280;60594;50.204;8.844;2022-08-27T09:13:50;99808.66;;;23.71;59.07
72570;BME280;60594;50.204;8.844;2022-08-27T09:16:18;99817.91;;;23.57;60.10
72570;BME280;60594;50.204;8.844;2022-08-27T09:18:45;99810.63;;;23.45;59.88
72570;BME280;60594;50.204;8.844;2022-08-27T09:24:21;99820.47;;;23.46;60.48
72570;BME280;60594;50.204;8.844;2022-08-27T09:26:55;99813.41;;;23.25;60.97
72570;BME280;60594;50.204;8.844;2022-08-27T09:29:25;99817.78;;;23.20;60.90
72570;BME280;60594;50.204;8.844;2022-08-27T09:32:08;99825.13;;;23.13;61.89
72570;BME280;60594;50.204;8.844;2022-08-27T09:34:40;99819.06;;;23.24;62.15
72570;BME280;60594;50.204;8.844;2022-08-27T09:37:13;99823.03;;;23.34;62.16
72570;BME280;60594;50.204;8.844;2022-08-27T09:40:06;99810.25;;;23.41;61.40
72570;BME280;60594;50.204;8.844;2022-08-27T09:42:44;99809.63;;;23.33;60.57
72570;BME280;60594;50.204;8.844;2022-08-27T09:45:19;99828.25;;;23.29;60.72
72570;BME280;60594;50.204;8.844;2022-08-27T09:47:47;99820.31;;;23.15;61.58
72570;BME280;60594;50.204;8.844;2022-08-27T09:50:16;99821.19;;;23.02;61.24
72570;BME280;60594;50.204;8.844;2022-08-27T09:52:52;99824.09;;;23.00;62.03
72570;BME280;60594;50.204;8.844;2022-08-27T09:55:45;99829.56;;;22.94;62.06
72570;BME280;60594;50.204;8.844;2022-08-27T10:01:26;99817.84;;;22.87;62.72
72570;BME280;60594;50.204;8.844;2022-08-27T10:04:24;99833.53;;;22.98;62.50
72570;BME280;60594;50.204;8.844;2022-08-27T10:06:52;99822.66;;;22.91;62.42
72570;BME280;60594;50.204;8.844;2022-08-27T10:09:25;99822.47;;;22.93;62.08
72570;BME280;60594;50.204;8.844;2022-08-27T10:12:05;99824.13;;;22.81;62.23
72570;BME280;60594;50.204;8.844;2022-08-27T10:14:41;99833.31;;;22.80;62.40
72570;BME280;60594;50.204;8.844;2022-08-27T10:23:27;99836.88;;;22.87;63.15
72570;BME280;60594;50.204;8.844;2022-08-27T10:28:47;99831.84;;;22.97;62.80
72570;BME280;60594;50.204;8.844;2022-08-27T10:34:16;99825.34;;;23.04;62.61
72570;BME280;60594;50.204;8.844;2022-08-27T10:42:38;99808.50;;;23.53;60.65
72570;BME280;60594;50.204;8.844;2022-08-27T10:45:42;99823.53;;;23.62;60.74
72570;BME280;60594;50.204;8.844;2022-08-27T10:48:40;99814.63;;;23.86;60.38
72570;BME280;60594;50.204;8.844;2022-08-27T10:51:15;99805.78;;;24.04;58.62
72570;BME280;60594;50.204;8.844;2022-08-27T10:53:52;99821.03;;;24.11;59.61
72570;BME280;60594;50.204;8.844;2022-08-27T10:56:56;99820.28;;;24.29;58.47
72570;BME280;60594;50.204;8.844;2022-08-27T10:59:59;99815.03;;;24.27;58.83
72570;BME280;60594;50.204;8.844;2022-08-27T11:02:38;99813.53;;;24.31;58.84
72570;BME280;60594;50.204;8.844;2022-08-27T11:05:19;99813.28;;;24.39;59.13
72570;BME280;60594;50.204;8.844;2022-08-27T11:07:52;99815.56;;;24.42;58.03
72570;BME280;60594;50.204;8.844;2022-08-27T11:10:30;99809.56;;;24.58;57.67
72570;BME280;60594;50.204;8.844;2022-08-27T11:13:04;99820.34;;;24.47;57.76
72570;BME280;60594;50.204;8.844;2022-08-27T11:15:37;99810.84;;;24.56;57.12
72570;BME280;60594;50.204;8.844;2022-08-27T11:18:23;99813.31;;;24.64;58.48
72570;BME280;60594;50.204;8.844;2022-08-27T11:21:04;99816.94;;;24.82;57.92
72570;BME280;60594;50.204;8.844;2022-08-27T11:23:48;99812.81;;;25.16;56.33
72570;BME280;60594;50.204;8.844;2022-08-27T11:26:18;99807.75;;;25.19;55.55
72570;BME280;60594;50.204;8.844;2022-08-27T11:28:49;99811.00;;;25.10;55.59
72570;BME280;60594;50.204;8.844;2022-08-27T11:37:08;99810.13;;;25.34;55.27
72570;BME280;60594;50.204;8.844;2022-08-27T11:42:45;99808.03;;;25.83;53.93
72570;BME280;60594;50.204;8.844;2022-08-27T11:47:57;99803.31;;;26.09;51.83
72570;BME280;60594;50.204;8.844;2022-08-27T11:50:26;99809.91;;;26.31;51.87
72570;BME280;60594;50.204;8.844;2022-08-27T11:53:00;99793.84;;;26.64;50.83
72570;BME280;60594;50.204;8.844;2022-08-27T11:55:45;99801.22;;;26.75;49.76
72570;BME280;60594;50.204;8.844;2022-08-27T11:58:39;99795.41;;;26.71;50.90
72570;BME280;60594;50.204;8.844;2022-08-27T12:01:23;99805.03;;;26.62;50.07
72570;BME280;60594;50.204;8.844;2022-08-27T12:04:47;99795.22;;;26.43;50.79
72570;BME280;60594;50.204;8.844;2022-08-27T12:06:51;99802.72;;;26.07;52.01
72570;BME280;60594;50.204;8.844;2022-08-27T12:09:22;99799.78;;;25.90;52.17
72570;BME280;60594;50.204;8.844;2022-08-27T12:11:58;99802.25;;;26.10;52.88
72570;BME280;60594;50.204;8.844;2022-08-27T12:14:48;99802.34;;;26.44;50.64
72570;BME280;60594;50.204;8.844;2022-08-27T12:17:28;99807.00;;;26.55;50.80
72570;BME280;60594;50.204;8.844;2022-08-27T12:20:19;99796.00;;;26.73;50.27
72570;BME280;60594;50.204;8.844;2022-08-27T12:26:00;99794.19;;;26.67;50.04
72570;BME280;60594;50.204;8.844;2022-08-27T12:28:38;99783.94;;;26.51;50.08
72570;BME280;60594;50.204;8.844;2022-08-27T12:31:04;99789.09;;;26.59;50.54
72570;BME280;60594;50.204;8.844;2022-08-27T12:33:34;99788.94;;;26.54;51.01
72570;BME280;60594;50.204;8.844;2022-08-27T12:36:12;99785.34;;;26.42;51.10
72570;BME280;60594;50.204;8.844;2022-08-27T12:38:44;99787.84;;;26.55;51.82
72570;BME280;60594;50.204;8.844;2022-08-27T12:41:24;99784.94;;;26.68;50.69
72570;BME280;60594;50.204;8.844;2022-08-27T12:44:01;99783.03;;;26.69;51.48
72570;BME280;60594;50.204;8.844;2022-08-27T12:46:28;99780.31;;;26.80;48.87
72570;BME280;60594;50.204;8.844;2022-08-27T12:48:57;99784.03;;;26.56;49.93
72570;BME280;60594;50.204;8.844;2022-08-27T12:51:29;99782.09;;;26.22;50.22
72570;BME280;60594;50.204;8.844;2022-08-27T12:57:34;99787.25;;;26.01;51.07
72570;BME280;60594;50.204;8.844;2022-08-27T13:00:23;99776.22;;;25.77;53.30
72570;BME280;60594;50.204;8.844;2022-08-27T13:05:39;99783.09;;;25.80;53.15
72570;BME280;60594;50.204;8.844;2022-08-27T13:08:21;99772.00;;;25.63;51.69
72570;BME280;60594;50.204;8.844;2022-08-27T13:10:49;99778.44;;;25.51;53.03
72570;BME280;60594;50.204;8.844;2022-08-27T13:13:21;99775.03;;;25.55;54.41
72570;BME280;60594;50.204;8.844;2022-08-27T13:15:50;99774.94;;;25.62;52.50
72570;BME280;60594;50.204;8.844;2022-08-27T13:18:18;99773.06;;;25.62;52.51
72570;BME280;60594;50.204;8.844;2022-08-27T13:20:47;99775.03;;;25.55;52.58
72570;BME280;60594;50.204;8.844;2022-08-27T13:23:18;99766.31;;;25.47;52.70
72570;BME280;60594;50.204;8.844;2022-08-27T13:26:06;99762.97;;;25.45;53.34
72570;BME280;60594;50.204;8.844;2022-08-27T13:28:34;99766.00;;;25.37;53.07
72570;BME280;60594;50.204;8.844;2022-08-27T13:31:03;99764.09;;;25.19;52.96
72570;BME280;60594;50.204;8.844;2022-08-27T13:33:33;99769.56;;;25.19;52.95
72570;BME280;60594;50.204;8.844;2022-08-27T13:36:00;99761.22;;;25.14;53.31
72570;BME280;60594;50.204;8.844;2022-08-27T13:38:29;99768.16;;;25.10;54.05
72570;BME280;60594;50.204;8.844;2022-08-27T13:43:51;99763.34;;;25.12;54.78
72570;BME280;60594;50.204;8.844;2022-08-27T13:46:22;99762.56;;;25.05;54.47
72570;BME280;60594;50.204;8.844;2022-08-27T13:48:52;99767.06;;;25.18;52.89
72570;BME280;60594;50.204;8.844;2022-08-27T13:51:32;99760.00;;;25.10;53.85
72570;BME280;60594;50.204;8.844;2022-08-27T13:54:09;99753.56;;;25.23;53.80
72570;BME280;60594;50.204;8.844;2022-08-27T14:02:18;99758.41;;;25.21;52.55
72570;BME280;60594;50.204;8.844;2022-08-27T14:05:02;99753.19;;;25.19;52.68
72570;BME280;60594;50.204;8.844;2022-08-27T14:07:36;99748.56;;;25.20;53.15
72570;BME280;60594;50.204;8.844;2022-08-27T14:12:57;99742.88;;;25.57;51.55
72570;BME280;60594;50.204;8.844;2022-08-27T14:17:53;99750.69;;;25.83;50.05
72570;BME280;60594;50.204;8.844;2022-08-27T14:20:20;99744.91;;;25.91;50.01
72570;BME280;60594;50.204;8.844;2022-08-27T14:22:46;99746.63;;;26.04;51.54
72570;BME280;60594;50.204;8.844;2022-08-27T14:25:14;99748.22;;;26.12;50.06
72570;BME280;60594;50.204;8.844;2022-08-27T14:27:42;99742.75;;;26.12;49.97